UAL639 KDEN-KMSO
Flight info
| Callsign | UAL639 |
|---|---|
| Flight time | 1h 29m |
| Altitude | 34000 |
| Route | DDRTH1 DDRTH WEDAK |
| Aircraft | B738/M-SDE2E3FGHIRWXY/LB1 |
Departure
| Time | 2026-05-07 15:26 |
|---|---|
| Airport | Denver International Airport (KDEN) |
Arrival
| Time | 2026-05-07 16:55 |
|---|---|
| Airport | Missoula Montana Airport (KMSO) |
| Time | Latitude | Longitude | Altitude | Speed | Heading |
|---|---|---|---|---|---|
| 2026-05-07 15:09 | 39.85798 | -104.67031 | 5365 ft | 0 kts | 0° |
| 2026-05-07 15:20 | 39.85784 | -104.67031 | 5362 ft | 4 kts | 360° |
| 2026-05-07 15:20 | 39.85763 | -104.67031 | 5361 ft | 4 kts | 3° |
| 2026-05-07 15:20 | 39.85739 | -104.67040 | 5361 ft | 4 kts | 51° |
| 2026-05-07 15:21 | 39.85732 | -104.67067 | 5363 ft | 4 kts | 91° |
| 2026-05-07 15:21 | 39.85732 | -104.67091 | 5362 ft | 0 kts | 91° |
| 2026-05-07 15:23 | 39.85732 | -104.67074 | 5364 ft | 4 kts | 91° |
| 2026-05-07 15:23 | 39.85732 | -104.67021 | 5364 ft | 7 kts | 91° |
| 2026-05-07 15:23 | 39.85732 | -104.66941 | 5365 ft | 10 kts | 90° |
| 2026-05-07 15:23 | 39.85723 | -104.66841 | 5365 ft | 12 kts | 123° |
| 2026-05-07 15:24 | 39.85663 | -104.66766 | 5365 ft | 13 kts | 105° |
| 2026-05-07 15:24 | 39.85660 | -104.66638 | 5365 ft | 15 kts | 91° |
| 2026-05-07 15:24 | 39.85678 | -104.66492 | 5363 ft | 17 kts | 84° |
| 2026-05-07 15:24 | 39.85681 | -104.66327 | 5365 ft | 19 kts | 92° |
| 2026-05-07 15:25 | 39.85755 | -104.66231 | 5364 ft | 18 kts | 359° |
| 2026-05-07 15:25 | 39.85889 | -104.66234 | 5363 ft | 20 kts | 4° |
| 2026-05-07 15:25 | 39.86019 | -104.66190 | 5364 ft | 21 kts | 71° |
| 2026-05-07 15:25 | 39.85986 | -104.66020 | 5364 ft | 22 kts | 159° |
| 2026-05-07 15:26 | 39.85639 | -104.66018 | 5365 ft | 85 kts | 180° |
| 2026-05-07 15:26 | 39.84820 | -104.66035 | 5363 ft | 148 kts | 179° |
| 2026-05-07 15:26 | 39.83629 | -104.66008 | 5544 ft | 188 kts | 181° |
| 2026-05-07 15:26 | 39.82288 | -104.65967 | 6253 ft | 199 kts | 182° |
| 2026-05-07 15:27 | 39.80839 | -104.65921 | 6692 ft | 222 kts | 183° |
| 2026-05-07 15:27 | 39.79241 | -104.65854 | 7173 ft | 235 kts | 183° |
| 2026-05-07 15:27 | 39.77591 | -104.65824 | 7648 ft | 241 kts | 190° |
| 2026-05-07 15:27 | 39.76073 | -104.66725 | 7869 ft | 247 kts | 228° |
| 2026-05-07 15:28 | 39.75256 | -104.68729 | 7962 ft | 262 kts | 263° |
| 2026-05-07 15:28 | 39.75392 | -104.71107 | 8191 ft | 272 kts | 289° |
| 2026-05-07 15:28 | 39.76311 | -104.73229 | 9098 ft | 270 kts | 314° |
| 2026-05-07 15:28 | 39.77854 | -104.74563 | 10043 ft | 271 kts | 338° |
| 2026-05-07 15:29 | 39.79681 | -104.75305 | 10560 ft | 286 kts | 344° |
| 2026-05-07 15:29 | 39.81711 | -104.75939 | 10737 ft | 313 kts | 346° |
| 2026-05-07 15:29 | 39.83917 | -104.76585 | 10921 ft | 337 kts | 346° |
| 2026-05-07 15:29 | 39.86250 | -104.77274 | 11076 ft | 359 kts | 346° |
| 2026-05-07 15:30 | 39.88732 | -104.78026 | 11470 ft | 371 kts | 346° |
| 2026-05-07 15:30 | 39.91269 | -104.78812 | 12007 ft | 378 kts | 345° |
| 2026-05-07 15:30 | 39.93830 | -104.79620 | 12743 ft | 379 kts | 345° |
| 2026-05-07 15:30 | 39.96408 | -104.80445 | 13365 ft | 385 kts | 345° |
| 2026-05-07 15:31 | 39.99018 | -104.81287 | 13998 ft | 388 kts | 344° |
| 2026-05-07 15:31 | 40.01648 | -104.82140 | 14612 ft | 390 kts | 344° |
| 2026-05-07 15:31 | 40.04288 | -104.82999 | 15234 ft | 392 kts | 344° |
| 2026-05-07 15:31 | 40.06949 | -104.83866 | 15828 ft | 395 kts | 343° |
| 2026-05-07 15:32 | 40.09626 | -104.84740 | 16385 ft | 398 kts | 343° |
| 2026-05-07 15:32 | 40.12321 | -104.85621 | 16973 ft | 401 kts | 343° |
| 2026-05-07 15:32 | 40.15032 | -104.86508 | 17562 ft | 403 kts | 343° |
| 2026-05-07 15:32 | 40.17763 | -104.87402 | 18157 ft | 406 kts | 343° |
| 2026-05-07 15:33 | 40.20513 | -104.88302 | 18675 ft | 408 kts | 343° |
| 2026-05-07 15:33 | 40.23280 | -104.89209 | 19177 ft | 411 kts | 343° |
| 2026-05-07 15:33 | 40.26062 | -104.90122 | 19672 ft | 413 kts | 343° |
| 2026-05-07 15:33 | 40.28857 | -104.91040 | 20163 ft | 415 kts | 342° |
| 2026-05-07 15:34 | 40.31668 | -104.91963 | 20643 ft | 418 kts | 342° |
| 2026-05-07 15:34 | 40.34506 | -104.92897 | 21032 ft | 422 kts | 343° |
| 2026-05-07 15:34 | 40.37362 | -104.93838 | 21408 ft | 426 kts | 343° |
| 2026-05-07 15:34 | 40.40245 | -104.94788 | 21870 ft | 427 kts | 342° |
| 2026-05-07 15:35 | 40.43139 | -104.95741 | 22328 ft | 429 kts | 342° |
| 2026-05-07 15:35 | 40.46047 | -104.96700 | 22748 ft | 431 kts | 342° |
| 2026-05-07 15:35 | 40.48967 | -104.97665 | 23144 ft | 434 kts | 342° |
| 2026-05-07 15:35 | 40.51903 | -104.98636 | 23535 ft | 436 kts | 342° |
| 2026-05-07 15:36 | 40.54856 | -104.99613 | 23866 ft | 438 kts | 342° |
| 2026-05-07 15:36 | 40.57754 | -105.00573 | 24231 ft | 440 kts | 342° |
| 2026-05-07 15:36 | 40.60720 | -105.01556 | 24603 ft | 440 kts | 342° |
| 2026-05-07 15:36 | 40.63695 | -105.02543 | 24940 ft | 441 kts | 342° |
| 2026-05-07 15:37 | 40.66647 | -105.03523 | 25241 ft | 443 kts | 342° |
| 2026-05-07 15:37 | 40.69678 | -105.04531 | 25537 ft | 445 kts | 342° |
| 2026-05-07 15:37 | 40.72633 | -105.05599 | 25825 ft | 444 kts | 337° |
| 2026-05-07 15:37 | 40.75402 | -105.07350 | 26099 ft | 441 kts | 326° |
| 2026-05-07 15:38 | 40.77890 | -105.09691 | 26418 ft | 439 kts | 318° |
| 2026-05-07 15:38 | 40.80053 | -105.12502 | 26766 ft | 436 kts | 308° |
| 2026-05-07 15:38 | 40.81927 | -105.15637 | 27207 ft | 433 kts | 307° |
| 2026-05-07 15:38 | 40.83176 | -105.17763 | 27501 ft | 431 kts | 307° |
| 2026-05-07 15:39 | 40.85004 | -105.20884 | 27924 ft | 429 kts | 307° |
| 2026-05-07 15:39 | 40.86841 | -105.24004 | 28337 ft | 428 kts | 307° |
| 2026-05-07 15:39 | 40.88667 | -105.27093 | 28766 ft | 426 kts | 307° |
| 2026-05-07 15:39 | 40.90493 | -105.30169 | 29114 ft | 425 kts | 308° |
| 2026-05-07 15:40 | 40.92301 | -105.33208 | 29415 ft | 426 kts | 308° |
| 2026-05-07 15:40 | 40.94132 | -105.36286 | 29810 ft | 425 kts | 308° |
| 2026-05-07 15:40 | 40.95954 | -105.39346 | 30262 ft | 422 kts | 308° |
| 2026-05-07 15:40 | 40.97793 | -105.42439 | 30612 ft | 421 kts | 308° |
| 2026-05-07 15:41 | 40.99597 | -105.45476 | 30975 ft | 419 kts | 308° |
| 2026-05-07 15:41 | 41.01364 | -105.48453 | 31339 ft | 417 kts | 308° |
| 2026-05-07 15:41 | 41.03153 | -105.51472 | 31703 ft | 416 kts | 308° |
| 2026-05-07 15:41 | 41.04933 | -105.54478 | 32052 ft | 414 kts | 308° |
| 2026-05-07 15:42 | 41.06712 | -105.57485 | 32406 ft | 413 kts | 308° |
| 2026-05-07 15:42 | 41.08479 | -105.60476 | 32759 ft | 411 kts | 308° |
| 2026-05-07 15:42 | 41.10239 | -105.63457 | 33128 ft | 410 kts | 308° |
| 2026-05-07 15:42 | 41.11985 | -105.66418 | 33563 ft | 405 kts | 308° |
| 2026-05-07 15:43 | 41.13704 | -105.69336 | 34132 ft | 399 kts | 309° |
| 2026-05-07 15:43 | 41.15420 | -105.72251 | 34082 ft | 401 kts | 309° |
| 2026-05-07 15:43 | 41.18847 | -105.78080 | 34097 ft | 398 kts | 309° |
| 2026-05-07 15:44 | 41.22237 | -105.83858 | 34116 ft | 395 kts | 309° |
| 2026-05-07 15:44 | 41.25605 | -105.89609 | 34097 ft | 394 kts | 309° |
| 2026-05-07 15:45 | 41.28969 | -105.95364 | 34118 ft | 393 kts | 308° |
| 2026-05-07 15:45 | 41.32290 | -106.01057 | 34048 ft | 393 kts | 309° |
| 2026-05-07 15:46 | 41.37304 | -106.09671 | 34084 ft | 392 kts | 309° |
| 2026-05-07 15:47 | 41.40621 | -106.15383 | 34058 ft | 391 kts | 309° |
| 2026-05-07 15:47 | 41.43950 | -106.21126 | 34090 ft | 391 kts | 309° |
| 2026-05-07 15:48 | 41.47309 | -106.26846 | 34082 ft | 392 kts | 310° |
| 2026-05-07 15:48 | 41.50862 | -106.32376 | 34077 ft | 393 kts | 311° |
| 2026-05-07 15:49 | 41.54444 | -106.37869 | 34061 ft | 391 kts | 311° |
| 2026-05-07 15:49 | 41.57996 | -106.43369 | 34058 ft | 390 kts | 311° |
| 2026-05-07 15:50 | 41.61523 | -106.48867 | 34054 ft | 389 kts | 311° |
| 2026-05-07 15:50 | 41.65038 | -106.54381 | 34066 ft | 389 kts | 311° |
| 2026-05-07 15:51 | 41.68555 | -106.59902 | 34056 ft | 390 kts | 311° |
| 2026-05-07 15:51 | 41.72049 | -106.65398 | 34043 ft | 390 kts | 311° |
| 2026-05-07 15:52 | 41.75560 | -106.70933 | 34010 ft | 390 kts | 311° |
| 2026-05-07 15:52 | 41.79064 | -106.76469 | 34060 ft | 388 kts | 311° |
| 2026-05-07 15:53 | 41.82551 | -106.81986 | 34028 ft | 388 kts | 311° |
| 2026-05-07 15:53 | 41.86032 | -106.87504 | 34074 ft | 387 kts | 311° |
| 2026-05-07 15:54 | 41.89506 | -106.93022 | 34089 ft | 387 kts | 311° |
| 2026-05-07 15:54 | 41.96295 | -107.03833 | 34113 ft | 387 kts | 311° |
| 2026-05-07 15:55 | 42.03209 | -107.14884 | 34085 ft | 386 kts | 311° |
| 2026-05-07 15:55 | 42.10126 | -107.25983 | 34051 ft | 387 kts | 311° |
| 2026-05-07 15:56 | 42.17048 | -107.37129 | 34017 ft | 388 kts | 311° |
| 2026-05-07 15:56 | 42.23911 | -107.48223 | 34020 ft | 387 kts | 312° |
| 2026-05-07 15:57 | 42.30817 | -107.59430 | 33999 ft | 389 kts | 312° |
| 2026-05-07 15:57 | 42.37735 | -107.70693 | 33986 ft | 389 kts | 312° |
| 2026-05-07 15:58 | 42.44637 | -107.81973 | 34005 ft | 389 kts | 312° |
| 2026-05-07 15:58 | 42.51517 | -107.93278 | 33966 ft | 388 kts | 312° |
| 2026-05-07 15:59 | 42.58294 | -108.04437 | 33946 ft | 388 kts | 312° |
| 2026-05-07 15:59 | 42.65143 | -108.15760 | 33926 ft | 387 kts | 311° |
| 2026-05-07 16:00 | 42.71962 | -108.27078 | 33922 ft | 387 kts | 311° |
| 2026-05-07 16:00 | 42.78725 | -108.38347 | 33973 ft | 386 kts | 311° |
| 2026-05-07 16:01 | 42.85510 | -108.49697 | 34007 ft | 387 kts | 311° |
| 2026-05-07 16:01 | 42.92313 | -108.61119 | 34008 ft | 389 kts | 311° |
| 2026-05-07 16:02 | 42.99114 | -108.72584 | 33974 ft | 388 kts | 311° |
| 2026-05-07 16:02 | 43.05894 | -108.84056 | 33931 ft | 388 kts | 311° |
| 2026-05-07 16:03 | 43.12664 | -108.95556 | 33913 ft | 388 kts | 311° |
| 2026-05-07 16:03 | 43.19320 | -109.06970 | 33931 ft | 387 kts | 311° |
| 2026-05-07 16:04 | 43.26086 | -109.18472 | 33942 ft | 388 kts | 310° |
| 2026-05-07 16:04 | 43.32803 | -109.30038 | 33967 ft | 391 kts | 310° |
| 2026-05-07 16:05 | 43.39599 | -109.41749 | 33950 ft | 392 kts | 310° |
| 2026-05-07 16:05 | 43.46369 | -109.53494 | 33999 ft | 391 kts | 310° |
| 2026-05-07 16:06 | 43.53145 | -109.65288 | 34003 ft | 393 kts | 310° |
| 2026-05-07 16:06 | 43.59940 | -109.77161 | 34026 ft | 395 kts | 310° |
| 2026-05-07 16:07 | 43.66758 | -109.89119 | 34028 ft | 397 kts | 310° |
| 2026-05-07 16:07 | 43.73457 | -110.01025 | 34043 ft | 397 kts | 310° |
| 2026-05-07 16:08 | 43.80281 | -110.13018 | 34062 ft | 397 kts | 310° |
| 2026-05-07 16:08 | 43.87048 | -110.25002 | 34015 ft | 397 kts | 310° |
| 2026-05-07 16:09 | 43.93822 | -110.37068 | 34079 ft | 396 kts | 310° |
| 2026-05-07 16:09 | 44.00316 | -110.49417 | 34032 ft | 395 kts | 310° |
| 2026-05-07 16:10 | 44.07200 | -110.61295 | 34035 ft | 395 kts | 310° |
| 2026-05-07 16:10 | 44.14011 | -110.73390 | 34019 ft | 396 kts | 310° |
| 2026-05-07 16:11 | 44.20726 | -110.85535 | 34046 ft | 396 kts | 309° |
| 2026-05-07 16:11 | 44.27390 | -110.97674 | 33998 ft | 397 kts | 309° |
| 2026-05-07 16:12 | 44.34002 | -111.09775 | 34033 ft | 398 kts | 309° |
| 2026-05-07 16:12 | 44.40711 | -111.22087 | 34051 ft | 399 kts | 309° |
| 2026-05-07 16:13 | 44.47434 | -111.34479 | 34046 ft | 399 kts | 309° |
| 2026-05-07 16:13 | 44.54124 | -111.46881 | 34048 ft | 399 kts | 308° |
| 2026-05-07 16:14 | 44.60800 | -111.59347 | 34009 ft | 400 kts | 310° |
| 2026-05-07 16:14 | 44.67506 | -111.71758 | 33987 ft | 397 kts | 308° |
| 2026-05-07 16:15 | 44.74116 | -111.84207 | 33992 ft | 396 kts | 308° |
| 2026-05-07 16:15 | 44.80714 | -111.96644 | 33974 ft | 396 kts | 308° |
| 2026-05-07 16:16 | 44.86349 | -112.07304 | 33982 ft | 397 kts | 308° |
| 2026-05-07 16:16 | 44.89645 | -112.13547 | 33970 ft | 396 kts | 308° |
| 2026-05-07 16:17 | 44.92905 | -112.19761 | 33971 ft | 396 kts | 308° |
| 2026-05-07 16:17 | 44.96192 | -112.26029 | 33956 ft | 397 kts | 308° |
| 2026-05-07 16:18 | 44.99475 | -112.32289 | 33953 ft | 396 kts | 308° |
| 2026-05-07 16:18 | 45.02742 | -112.38540 | 33936 ft | 396 kts | 308° |
| 2026-05-07 16:19 | 45.06011 | -112.44809 | 33933 ft | 396 kts | 308° |
| 2026-05-07 16:19 | 45.09276 | -112.51087 | 34018 ft | 396 kts | 307° |
| 2026-05-07 16:20 | 45.12511 | -112.57402 | 34032 ft | 396 kts | 307° |
| 2026-05-07 16:20 | 45.15765 | -112.63643 | 34034 ft | 396 kts | 307° |
| 2026-05-07 16:21 | 45.19027 | -112.69924 | 34029 ft | 396 kts | 307° |
| 2026-05-07 16:21 | 45.22275 | -112.76215 | 34020 ft | 395 kts | 307° |
| 2026-05-07 16:22 | 45.25516 | -112.82512 | 34003 ft | 394 kts | 307° |
| 2026-05-07 16:22 | 45.28749 | -112.88808 | 33993 ft | 395 kts | 307° |
| 2026-05-07 16:23 | 45.31985 | -112.95125 | 33964 ft | 395 kts | 307° |
| 2026-05-07 16:23 | 45.35184 | -113.01383 | 33956 ft | 396 kts | 307° |
| 2026-05-07 16:24 | 45.38422 | -113.07727 | 33893 ft | 397 kts | 307° |
| 2026-05-07 16:24 | 45.41674 | -113.14000 | 33959 ft | 397 kts | 307° |
| 2026-05-07 16:25 | 45.44886 | -113.20401 | 33965 ft | 398 kts | 307° |
| 2026-05-07 16:25 | 45.47574 | -113.25742 | 33964 ft | 399 kts | 307° |
| 2026-05-07 16:26 | 45.50813 | -113.32164 | 33958 ft | 399 kts | 307° |
| 2026-05-07 16:26 | 45.54058 | -113.38595 | 33976 ft | 400 kts | 307° |
| 2026-05-07 16:27 | 45.57325 | -113.45087 | 33982 ft | 400 kts | 307° |
| 2026-05-07 16:27 | 45.60546 | -113.51501 | 33974 ft | 399 kts | 306° |
| 2026-05-07 16:28 | 45.63772 | -113.57939 | 33980 ft | 399 kts | 306° |
| 2026-05-07 16:28 | 45.66999 | -113.64394 | 33977 ft | 399 kts | 306° |
| 2026-05-07 16:29 | 45.70220 | -113.70852 | 33975 ft | 399 kts | 306° |
| 2026-05-07 16:29 | 45.73438 | -113.77319 | 33982 ft | 399 kts | 306° |
| 2026-05-07 16:30 | 45.76656 | -113.83801 | 33986 ft | 399 kts | 306° |
| 2026-05-07 16:30 | 45.79861 | -113.90281 | 33995 ft | 399 kts | 306° |
| 2026-05-07 16:31 | 45.83102 | -113.96731 | 33991 ft | 399 kts | 306° |
| 2026-05-07 16:31 | 45.86250 | -114.03154 | 33993 ft | 398 kts | 308° |
| 2026-05-07 16:32 | 45.90283 | -114.08595 | 33989 ft | 400 kts | 321° |
| 2026-05-07 16:32 | 45.92591 | -114.10877 | 33654 ft | 407 kts | 329° |
| 2026-05-07 16:32 | 45.95181 | -114.12537 | 33373 ft | 408 kts | 334° |
| 2026-05-07 16:32 | 45.97802 | -114.14121 | 33054 ft | 409 kts | 333° |
| 2026-05-07 16:33 | 46.00391 | -114.15747 | 32683 ft | 404 kts | 333° |
| 2026-05-07 16:33 | 46.02942 | -114.17380 | 32213 ft | 399 kts | 333° |
| 2026-05-07 16:33 | 46.05471 | -114.18988 | 31743 ft | 395 kts | 333° |
| 2026-05-07 16:33 | 46.07976 | -114.20555 | 31312 ft | 389 kts | 333° |
| 2026-05-07 16:34 | 46.10441 | -114.22112 | 30844 ft | 385 kts | 333° |
| 2026-05-07 16:34 | 46.12877 | -114.23653 | 30438 ft | 379 kts | 333° |
| 2026-05-07 16:34 | 46.15244 | -114.25173 | 29987 ft | 376 kts | 334° |
| 2026-05-07 16:34 | 46.17668 | -114.26651 | 29477 ft | 371 kts | 334° |
| 2026-05-07 16:35 | 46.20023 | -114.28129 | 29008 ft | 366 kts | 333° |
| 2026-05-07 16:35 | 46.22340 | -114.29629 | 28501 ft | 363 kts | 333° |
| 2026-05-07 16:35 | 46.24602 | -114.31188 | 28045 ft | 360 kts | 332° |
| 2026-05-07 16:35 | 46.26879 | -114.32675 | 27570 ft | 358 kts | 334° |
| 2026-05-07 16:36 | 46.29161 | -114.34111 | 27050 ft | 356 kts | 335° |
| 2026-05-07 16:36 | 46.31427 | -114.35507 | 26660 ft | 353 kts | 334° |
| 2026-05-07 16:36 | 46.33679 | -114.36941 | 26196 ft | 355 kts | 334° |
| 2026-05-07 16:36 | 46.35956 | -114.38385 | 25748 ft | 360 kts | 334° |
| 2026-05-07 16:37 | 46.38253 | -114.39860 | 25284 ft | 362 kts | 334° |
| 2026-05-07 16:37 | 46.40547 | -114.41343 | 24821 ft | 361 kts | 334° |
| 2026-05-07 16:37 | 46.42833 | -114.42836 | 24377 ft | 360 kts | 333° |
| 2026-05-07 16:37 | 46.45121 | -114.44317 | 23905 ft | 359 kts | 334° |
| 2026-05-07 16:38 | 46.47408 | -114.45784 | 23417 ft | 358 kts | 334° |
| 2026-05-07 16:38 | 46.49683 | -114.47241 | 22873 ft | 357 kts | 334° |
| 2026-05-07 16:38 | 46.51950 | -114.48701 | 22359 ft | 356 kts | 334° |
| 2026-05-07 16:38 | 46.54200 | -114.50151 | 21812 ft | 350 kts | 334° |
| 2026-05-07 16:39 | 46.56395 | -114.51569 | 21316 ft | 340 kts | 334° |
| 2026-05-07 16:39 | 46.58536 | -114.52954 | 20814 ft | 333 kts | 334° |
| 2026-05-07 16:39 | 46.60622 | -114.54305 | 20315 ft | 325 kts | 334° |
| 2026-05-07 16:39 | 46.62661 | -114.55625 | 19925 ft | 317 kts | 334° |
| 2026-05-07 16:40 | 46.64656 | -114.56919 | 19503 ft | 310 kts | 334° |
| 2026-05-07 16:40 | 46.66605 | -114.58185 | 19101 ft | 303 kts | 334° |
| 2026-05-07 16:40 | 46.68488 | -114.59411 | 18689 ft | 298 kts | 334° |
| 2026-05-07 16:40 | 46.70366 | -114.60631 | 18301 ft | 292 kts | 334° |
| 2026-05-07 16:41 | 46.72197 | -114.61851 | 17848 ft | 286 kts | 333° |
| 2026-05-07 16:41 | 46.73992 | -114.63022 | 17439 ft | 280 kts | 334° |
| 2026-05-07 16:41 | 46.75756 | -114.64153 | 17084 ft | 274 kts | 334° |
| 2026-05-07 16:41 | 46.77484 | -114.65271 | 16723 ft | 269 kts | 334° |
| 2026-05-07 16:42 | 46.79184 | -114.66376 | 16363 ft | 266 kts | 334° |
| 2026-05-07 16:42 | 46.80863 | -114.67446 | 15981 ft | 262 kts | 339° |
| 2026-05-07 16:42 | 46.82619 | -114.68085 | 15627 ft | 260 kts | 349° |
| 2026-05-07 16:42 | 46.84404 | -114.68393 | 15282 ft | 256 kts | 351° |
| 2026-05-07 16:43 | 46.86162 | -114.68645 | 14966 ft | 251 kts | 352° |
| 2026-05-07 16:43 | 46.87875 | -114.68851 | 14655 ft | 243 kts | 352° |
| 2026-05-07 16:43 | 46.89544 | -114.69004 | 14317 ft | 238 kts | 354° |
| 2026-05-07 16:43 | 46.91189 | -114.69089 | 13981 ft | 235 kts | 355° |
| 2026-05-07 16:44 | 46.92818 | -114.69065 | 13634 ft | 233 kts | 358° |
| 2026-05-07 16:44 | 46.94435 | -114.68897 | 13261 ft | 233 kts | 7° |
| 2026-05-07 16:44 | 46.95952 | -114.67989 | 12923 ft | 236 kts | 19° |
| 2026-05-07 16:44 | 46.97461 | -114.67040 | 12575 ft | 237 kts | 17° |
| 2026-05-07 16:45 | 46.98980 | -114.66114 | 12196 ft | 237 kts | 19° |
| 2026-05-07 16:45 | 47.00496 | -114.65184 | 11860 ft | 237 kts | 18° |
| 2026-05-07 16:45 | 47.02020 | -114.64262 | 11503 ft | 237 kts | 19° |
| 2026-05-07 16:45 | 47.03540 | -114.63348 | 11176 ft | 232 kts | 18° |
| 2026-05-07 16:46 | 47.05004 | -114.62453 | 10972 ft | 223 kts | 19° |
| 2026-05-07 16:46 | 47.06413 | -114.61597 | 10699 ft | 216 kts | 18° |
| 2026-05-07 16:46 | 47.07792 | -114.60760 | 10454 ft | 211 kts | 19° |
| 2026-05-07 16:46 | 47.09127 | -114.59944 | 10440 ft | 210 kts | 18° |
| 2026-05-07 16:47 | 47.10511 | -114.59102 | 10441 ft | 219 kts | 19° |
| 2026-05-07 16:47 | 47.11931 | -114.58239 | 10431 ft | 220 kts | 18° |
| 2026-05-07 16:47 | 47.13308 | -114.57395 | 10258 ft | 215 kts | 20° |
| 2026-05-07 16:47 | 47.14522 | -114.56109 | 9870 ft | 221 kts | 47° |
| 2026-05-07 16:48 | 47.15263 | -114.54119 | 9487 ft | 225 kts | 68° |
| 2026-05-07 16:48 | 47.15416 | -114.51824 | 9424 ft | 234 kts | 101° |
| 2026-05-07 16:48 | 47.14693 | -114.49673 | 9445 ft | 237 kts | 121° |
| 2026-05-07 16:48 | 47.13818 | -114.47609 | 9431 ft | 237 kts | 123° |
| 2026-05-07 16:49 | 47.12856 | -114.45622 | 9178 ft | 242 kts | 127° |
| 2026-05-07 16:49 | 47.11794 | -114.43696 | 8886 ft | 243 kts | 130° |
| 2026-05-07 16:49 | 47.10705 | -114.41820 | 8565 ft | 237 kts | 131° |
| 2026-05-07 16:49 | 47.09639 | -114.40004 | 8241 ft | 232 kts | 131° |
| 2026-05-07 16:50 | 47.08595 | -114.38225 | 7938 ft | 229 kts | 132° |
| 2026-05-07 16:50 | 47.07562 | -114.36462 | 7665 ft | 226 kts | 132° |
| 2026-05-07 16:50 | 47.06538 | -114.34714 | 7380 ft | 225 kts | 132° |
| 2026-05-07 16:50 | 47.05527 | -114.32989 | 7080 ft | 220 kts | 133° |
| 2026-05-07 16:51 | 47.04541 | -114.31301 | 6804 ft | 215 kts | 133° |
| 2026-05-07 16:51 | 47.03600 | -114.29662 | 6545 ft | 209 kts | 135° |
| 2026-05-07 16:51 | 47.02650 | -114.28060 | 6279 ft | 203 kts | 134° |
| 2026-05-07 16:51 | 47.01762 | -114.26548 | 6041 ft | 187 kts | 133° |
| 2026-05-07 16:52 | 47.00954 | -114.25166 | 5810 ft | 172 kts | 133° |
| 2026-05-07 16:52 | 47.00191 | -114.23858 | 5562 ft | 167 kts | 135° |
| 2026-05-07 16:52 | 46.99454 | -114.22581 | 5346 ft | 162 kts | 134° |
| 2026-05-07 16:52 | 46.98716 | -114.21336 | 5125 ft | 162 kts | 133° |
| 2026-05-07 16:53 | 46.98000 | -114.20110 | 4925 ft | 157 kts | 131° |
| 2026-05-07 16:53 | 46.97291 | -114.18898 | 4709 ft | 155 kts | 131° |
| 2026-05-07 16:53 | 46.96591 | -114.17693 | 4508 ft | 156 kts | 131° |
| 2026-05-07 16:53 | 46.95884 | -114.16486 | 4295 ft | 157 kts | 131° |
| 2026-05-07 16:54 | 46.95174 | -114.15268 | 4092 ft | 157 kts | 131° |
| 2026-05-07 16:54 | 46.94487 | -114.14059 | 3867 ft | 151 kts | 130° |
| 2026-05-07 16:54 | 46.93809 | -114.12885 | 3660 ft | 151 kts | 132° |
| 2026-05-07 16:54 | 46.93126 | -114.11718 | 3423 ft | 151 kts | 130° |
| 2026-05-07 16:55 | 46.92452 | -114.10577 | 3239 ft | 145 kts | 131° |
| 2026-05-07 16:55 | 46.91847 | -114.09552 | 3198 ft | 114 kts | 130° |
| 2026-05-07 16:55 | 46.91434 | -114.08854 | 3202 ft | 64 kts | 131° |
| 2026-05-07 16:55 | 46.91278 | -114.08520 | 3202 ft | 24 kts | 86° |
| 2026-05-07 16:56 | 46.91324 | -114.08418 | 3203 ft | 9 kts | 16° |
| 2026-05-07 16:56 | 46.91378 | -114.08373 | 3203 ft | 9 kts | 40° |
| 2026-05-07 16:56 | 46.91505 | -114.08212 | 3199 ft | 18 kts | 40° |
| 2026-05-07 16:57 | 46.91621 | -114.08252 | 3201 ft | 20 kts | 314° |
| 2026-05-07 16:57 | 46.91691 | -114.08375 | 3201 ft | 12 kts | 310° |
| 2026-05-07 16:57 | 46.91762 | -114.08476 | 3202 ft | 10 kts | 353° |
| 2026-05-07 16:57 | 46.91798 | -114.08445 | 3203 ft | 4 kts | 36° |
| 2026-05-07 16:58 | 46.91808 | -114.08426 | 3201 ft | 2 kts | 53° |
| 2026-05-07 16:58 | 46.91811 | -114.08422 | 3204 ft | 0 kts | 53° |